createdAt,value
2019-01-06T18:04:16.843Z,4.30
2019-01-06T18:07:09.258Z,4.00
2019-01-06T18:10:02.991Z,3.90
2019-01-06T18:13:09.417Z,3.80
2019-01-06T18:16:04.341Z,3.70
2019-01-06T18:18:57.948Z,3.60
2019-01-06T18:21:59.319Z,3.60
2019-01-06T18:24:53.288Z,3.50
2019-01-06T18:27:46.697Z,3.50
2019-01-06T18:30:39.012Z,3.40
2019-01-06T18:33:31.945Z,3.40
2019-01-06T18:36:32.087Z,3.40
2019-01-06T18:39:27.282Z,3.40
2019-01-06T18:42:19.318Z,3.50
2019-01-06T18:45:15.091Z,3.40
2019-01-06T18:48:23.370Z,3.40
2019-01-06T18:51:18.941Z,3.30
2019-01-06T18:54:11.130Z,3.20
2019-01-06T18:57:12.011Z,3.20
2019-01-06T19:00:21.776Z,3.10
2019-01-06T19:03:35.871Z,3.10
2019-01-06T19:06:40.984Z,3.00
2019-01-06T19:09:40.088Z,3.00
2019-01-06T19:12:42.660Z,3.00
2019-01-06T19:15:36.571Z,3.00
2019-01-06T19:18:24.971Z,3.00
2019-01-06T19:21:26.926Z,3.00
2019-01-06T19:24:43.622Z,2.90
2019-01-06T19:27:39.588Z,3.00
2019-01-06T19:30:31.682Z,3.10
2019-01-06T19:33:24.402Z,3.10
2019-01-06T19:36:18.607Z,3.20
2019-01-06T19:39:11.981Z,3.10
2019-01-06T19:42:11.114Z,3.20
2019-01-06T19:45:10.226Z,3.10
2019-01-06T19:48:05.384Z,3.10
2019-01-06T19:50:59.264Z,2.90
2019-01-06T19:53:50.498Z,2.90
2019-01-06T19:56:45.060Z,2.90
2019-01-06T19:59:37.434Z,2.80
2019-01-06T20:02:30.508Z,2.80
2019-01-06T20:05:28.133Z,2.80
2019-01-06T20:08:24.844Z,2.80
2019-01-06T20:11:19.049Z,2.80
2019-01-06T20:14:18.578Z,2.80
2019-01-06T20:17:12.537Z,2.70
2019-01-06T20:20:06.142Z,2.70
2019-01-06T20:23:01.723Z,2.80
2019-01-06T20:26:17.962Z,2.80
2019-01-06T20:29:32.943Z,2.70
2019-01-06T20:32:39.262Z,2.80
2019-01-06T20:35:37.995Z,2.70
2019-01-06T20:38:31.001Z,2.70
2019-01-06T20:41:34.244Z,2.80
2019-01-06T20:44:28.509Z,2.90
2019-01-06T20:47:25.208Z,2.80
2019-01-06T20:50:18.044Z,2.70
2019-01-06T20:53:17.370Z,2.80
2019-01-06T20:56:20.347Z,3.00
2019-01-06T20:59:29.399Z,2.80
2019-01-06T21:02:48.404Z,2.90
2019-01-06T21:06:00.540Z,2.70
2019-01-06T21:08:54.690Z,2.70
2019-01-06T21:11:52.786Z,2.70
2019-01-06T21:14:45.626Z,2.70
2019-01-06T21:17:39.290Z,2.70
2019-01-06T21:20:32.668Z,2.80
2019-01-06T21:23:25.170Z,2.90
2019-01-06T21:26:31.992Z,2.70
2019-01-06T21:29:39.954Z,2.60
2019-01-06T21:32:37.371Z,2.60
2019-01-06T21:35:34.578Z,2.60
2019-01-06T21:38:27.732Z,2.80
2019-01-06T21:41:19.544Z,2.60
2019-01-06T21:44:15.292Z,2.80
2019-01-06T21:47:14.536Z,2.80
2019-01-06T21:50:00.002Z,2.80
2019-01-06T21:53:03.311Z,2.60
2019-01-06T21:55:57.508Z,2.70
2019-01-06T21:58:50.081Z,2.70
2019-01-06T22:01:44.062Z,2.40
2019-01-06T22:04:36.074Z,2.50
2019-01-06T22:07:31.913Z,2.50
2019-01-06T22:10:45.362Z,2.40
2019-01-06T22:13:43.714Z,2.40
2019-01-06T22:16:35.362Z,2.40
2019-01-06T22:19:30.938Z,2.40
2019-01-06T22:22:17.686Z,2.30
2019-01-06T22:25:22.316Z,2.20
2019-01-06T22:28:31.850Z,2.30
2019-01-06T22:31:27.699Z,2.20
2019-01-06T22:34:37.843Z,2.20
2019-01-06T22:37:30.458Z,2.10
2019-01-06T22:40:22.404Z,1.90
2019-01-06T22:43:21.866Z,2.00
2019-01-06T22:46:15.810Z,2.00
2019-01-06T22:49:08.962Z,2.00
2019-01-06T22:52:12.534Z,2.00
2019-01-06T22:55:09.275Z,2.00
2019-01-06T22:58:05.604Z,1.90
2019-01-06T23:01:08.377Z,1.90
2019-01-06T23:04:02.558Z,1.90
2019-01-06T23:07:03.220Z,2.00
2019-01-06T23:09:55.750Z,2.00
2019-01-06T23:12:59.715Z,1.90
2019-01-06T23:15:53.308Z,1.80
2019-01-06T23:18:59.880Z,1.80
2019-01-06T23:21:52.122Z,2.00
2019-01-06T23:24:45.186Z,2.00
2019-01-06T23:27:45.070Z,1.90
2019-01-06T23:30:51.504Z,1.90
2019-01-06T23:33:43.586Z,1.90
2019-01-06T23:36:33.224Z,1.80
2019-01-06T23:39:44.982Z,1.70
2019-01-06T23:42:44.521Z,1.70
2019-01-06T23:45:38.343Z,1.70
2019-01-06T23:48:36.562Z,1.70
2019-01-06T23:51:40.604Z,1.70
2019-01-06T23:54:53.358Z,1.70
2019-01-06T23:57:47.743Z,1.90
